Latest Weather Observations for Thevenard

IDS60801

Issued at 9:31 am CST Friday 28 August 2015 (issued every 30 minutes, with the page automatically refreshed every 10 minutes)

About weather observations | Map of weather stations | Latest weather observations for SA | Other Formats
Station Details ID: 018200 Name: THEVENARD WIND Lat: -32.18 Lon: 133.63 Height: 8.54 m
Data from the previous 72 hours. | See also: Recent months for locations in South Australia
Date/Time
CST
Temp
°C
App
Temp
°C
Dew
Point
Rel
Hum
%
Delta-T
°C
Wind Press
QNH
hPa
Press
MSL
hPa
Rain
since 9 am
mm
Dir
 
Spd
km/h
Gust
km/h
Spd
kts
Gust
kts
28/09:30am - - - - - E 19 22 10 12 - - -
28/09:00am - - - - - E 15 22 8 12 - - -
28/08:30am - - - - - E 9 15 5 8 - - -
28/08:00am - - - - - ENE 13 17 7 9 - - -
28/07:30am - - - - - ENE 11 15 6 8 - - -
28/07:00am - - - - - ENE 13 19 7 10 - - -
28/06:30am - - - - - E 15 19 8 10 - - -
28/06:00am - - - - - E 17 20 9 11 - - -
28/05:30am - - - - - E 20 24 11 13 - - -
28/05:00am - - - - - E 20 24 11 13 - - -
28/04:30am - - - - - E 24 28 13 15 - - -
28/04:00am - - - - - E 26 30 14 16 - - -
28/03:30am - - - - - E 26 32 14 17 - - -
28/03:00am - - - - - E 30 33 16 18 - - -
28/02:30am - - - - - E 28 32 15 17 - - -
28/02:00am - - - - - E 22 30 12 16 - - -
28/01:30am - - - - - E 15 19 8 10 - - -
28/01:00am - - - - - ESE 15 20 8 11 - - -
28/12:30am - - - - - ESE 17 22 9 12 - - -
28/12:00am - - - - - E 20 24 11 13 - - -
 
Date/Time
CST
Temp
°C
App
Temp
°C
Dew
Point
Rel
Hum
%
Delta-T
°C
Wind Press
QNH
hPa
Press
MSL
hPa
Rain
since 9 am
mm
Dir
 
Spd
km/h
Gust
km/h
Spd
kts
Gust
kts
27/11:30pm - - - - - E 22 26 12 14 - - -
27/11:00pm - - - - - ESE 26 32 14 17 - - -
27/10:30pm - - - - - ESE 28 33 15 18 - - -
27/10:00pm - - - - - ESE 28 33 15 18 - - -
27/09:30pm - - - - - ESE 28 33 15 18 - - -
27/09:00pm - - - - - SE 28 32 15 17 - - -
27/08:30pm - - - - - SE 28 32 15 17 - - -
27/08:00pm - - - - - SE 24 30 13 16 - - -
27/07:30pm - - - - - SE 24 28 13 15 - - -
27/07:00pm - - - - - SE 22 26 12 14 - - -
27/06:30pm - - - - - SE 24 28 13 15 - - -
27/06:00pm - - - - - SE 24 28 13 15 - - -
27/05:30pm - - - - - SE 24 28 13 15 - - -
27/05:00pm - - - - - SE 22 26 12 14 - - -
27/04:30pm - - - - - SE 26 32 14 17 - - -
27/04:00pm - - - - - SSE 30 33 16 18 - - -
27/03:30pm - - - - - SSE 32 37 17 20 - - -
27/03:00pm - - - - - SSE 28 33 15 18 - - -
27/02:30pm - - - - - SSE 17 19 9 10 - - -
27/02:00pm - - - - - SE 20 24 11 13 - - -
27/01:30pm - - - - - SSE 20 24 11 13 - - -
27/01:00pm - - - - - SSE 13 20 7 11 - - -
27/12:30pm - - - - - S 6 7 3 4 - - -
27/12:00pm - - - - - WSW 4 6 2 3 - - -
27/11:30am - - - - - W 4 6 2 3 - - -
27/11:00am - - - - - WNW 7 9 4 5 - - -
27/10:30am - - - - - W 7 9 4 5 - - -
27/10:00am - - - - - N 4 7 2 4 - - -
27/09:30am - - - - - N 6 7 3 4 - - -
27/09:00am - - - - - NNE 9 11 5 6 - - -
27/08:30am - - - - - N 9 11 5 6 - - -
27/08:00am - - - - - N 7 11 4 6 - - -
27/07:30am - - - - - N 7 9 4 5 - - -
27/07:00am - - - - - N 9 11 5 6 - - -
27/06:30am - - - - - N 7 9 4 5 - - -
27/06:00am - - - - - NNW 9 11 5 6 - - -
27/05:30am - - - - - N 7 9 4 5 - - -
27/05:00am - - - - - NE 7 9 4 5 - - -
27/04:30am - - - - - NNE 6 7 3 4 - - -
27/04:00am - - - - - NNE 7 9 4 5 - - -
27/03:30am - - - - - NNE 7 9 4 5 - - -
27/03:00am - - - - - NNE 7 7 4 4 - - -
27/02:30am - - - - - N 7 11 4 6 - - -
27/02:00am - - - - - NNE 9 11 5 6 - - -
27/01:30am - - - - - NNE 6 7 3 4 - - -
27/01:00am - - - - - NNE 4 6 2 3 - - -
27/12:30am - - - - - NNE 6 7 3 4 - - -
27/12:00am - - - - - NNE 7 9 4 5 - - -
 
Date/Time
CST
Temp
°C
App
Temp
°C
Dew
Point
Rel
Hum
%
Delta-T
°C
Wind Press
QNH
hPa
Press
MSL
hPa
Rain
since 9 am
mm
Dir
 
Spd
km/h
Gust
km/h
Spd
kts
Gust
kts
26/11:30pm - - - - - NNE 9 11 5 6 - - -
26/11:00pm - - - - - SE 11 15 6 8 - - -
26/10:30pm - - - - - SE 11 15 6 8 - - -
26/10:00pm - - - - - SE 13 17 7 9 - - -
26/09:30pm - - - - - SSE 13 17 7 9 - - -
26/09:00pm - - - - - SSE 13 17 7 9 - - -
26/08:30pm - - - - - S 13 15 7 8 - - -
26/08:00pm - - - - - S 11 13 6 7 - - -
26/07:30pm - - - - - S 13 17 7 9 - - -
26/07:00pm - - - - - S 17 19 9 10 - - -
26/06:30pm - - - - - S 15 19 8 10 - - -
26/06:00pm - - - - - S 13 15 7 8 - - -
26/05:30pm - - - - - S 15 19 8 10 - - -
26/05:00pm - - - - - S 17 20 9 11 - - -
26/04:30pm - - - - - SSE 13 15 7 8 - - -
26/04:00pm - - - - - SSE 11 15 6 8 - - -
26/03:30pm - - - - - SSE 9 13 5 7 - - -
26/03:00pm - - - - - S 9 13 5 7 - - -
26/02:30pm - - - - - SSE 11 13 6 7 - - -
26/02:00pm - - - - - SSE 9 11 5 6 - - -
26/01:30pm - - - - - SSE 6 9 3 5 - - -
26/01:00pm - - - - - SSW 4 7 2 4 - - -
26/12:30pm - - - - - SSW 6 7 3 4 - - -
26/12:00pm - - - - - S 6 7 3 4 - - -
26/11:30am - - - - - SSW 4 6 2 3 - - -
26/11:00am - - - - - WSW 4 4 2 2 - - -
26/10:30am - - - - - CALM 0 2 0 1 - - -
26/10:00am - - - - - NE 2 6 1 3 - - -
26/09:30am - - - - - NE 6 7 3 4 - - -
26/09:00am - - - - - ENE 6 7 3 4 - - -
26/08:30am - - - - - ENE 7 11 4 6 - - -
26/08:00am - - - - - NE 6 7 3 4 - - -
26/07:30am - - - - - NE 7 9 4 5 - - -
26/07:00am - - - - - ENE 9 11 5 6 - - -
26/06:30am - - - - - ENE 13 17 7 9 - - -
26/06:00am - - - - - E 15 17 8 9 - - -
26/05:30am - - - - - E 17 20 9 11 - - -
26/05:00am - - - - - E 15 19 8 10 - - -
26/04:30am - - - - - E 17 20 9 11 - - -
26/04:00am - - - - - E 17 19 9 10 - - -
26/03:30am - - - - - E 15 19 8 10 - - -
26/03:00am - - - - - E 20 24 11 13 - - -
26/02:30am - - - - - ESE 22 28 12 15 - - -
26/02:00am - - - - - ESE 24 32 13 17 - - -
26/01:30am - - - - - ESE 19 24 10 13 - - -
26/01:00am - - - - - ESE 20 28 11 15 - - -
26/12:30am - - - - - ESE 19 26 10 14 - - -
26/12:00am - - - - - E 17 20 9 11 - - -
 
Date/Time
CST
Temp
°C
App
Temp
°C
Dew
Point
Rel
Hum
%
Delta-T
°C
Wind Press
QNH
hPa
Press
MSL
hPa
Rain
since 9 am
mm
Dir
 
Spd
km/h
Gust
km/h
Spd
kts
Gust
kts
25/11:30pm - - - - - ESE 22 30 12 16 - - -
25/11:00pm - - - - - ESE 28 32 15 17 - - -
25/10:30pm - - - - - ESE 26 35 14 19 - - -
25/10:00pm - - - - - SE 30 37 16 20 - - -
25/09:30pm - - - - - ESE 28 35 15 19 - - -
25/09:00pm - - - - - SE 30 37 16 20 - - -
25/08:30pm - - - - - SE 30 37 16 20 - - -
25/08:00pm - - - - - SE 33 39 18 21 - - -
25/07:30pm - - - - - SE 35 41 19 22 - - -
25/07:00pm - - - - - SE 35 41 19 22 - - -
25/06:30pm - - - - - SE 37 44 20 24 - - -
25/06:00pm - - - - - SSE 35 41 19 22 - - -
25/05:30pm - - - - - SSE 35 41 19 22 - - -
25/05:00pm - - - - - SSE 30 37 16 20 - - -
25/04:30pm - - - - - SSE 32 35 17 19 - - -
25/04:00pm - - - - - SSE 30 35 16 19 - - -
25/03:30pm - - - - - SSE 28 33 15 18 - - -
25/03:00pm - - - - - SSE 26 32 14 17 - - -
25/02:30pm - - - - - SE 24 30 13 16 - - -
25/02:00pm - - - - - SE 22 26 12 14 - - -
25/01:30pm - - - - - SE 24 30 13 16 - - -
25/01:00pm - - - - - SE 24 30 13 16 - - -
25/12:30pm - - - - - SE 24 28 13 15 - - -
25/12:00pm - - - - - SE 20 26 11 14 - - -
25/11:30am - - - - - SE 20 26 11 14 - - -
25/11:00am - - - - - ESE 20 24 11 13 - - -
25/10:30am - - - - - ESE 19 26 10 14 - - -
25/10:00am - - - - - ESE 20 26 11 14 - - -

Other Formats:

Comma delimited format used in spreadsheet applications
http://www.bom.gov.au/fwo/IDS60801/IDS60801.95653.axf

JavaScript Object Notation format (JSON) in row-major order
http://www.bom.gov.au/fwo/IDS60801/IDS60801.95653.json